sensor_id;sensor_type;location;lat;lon;timestamp;pressure;altitude;pressure_sealevel;temperature
10058;BMP180;5068;51.286;7.518;2023-01-16T00:01:27;97514.00;;;8.40
10058;BMP180;5068;51.286;7.518;2023-01-16T00:03:01;97518.00;;;8.40
10058;BMP180;5068;51.286;7.518;2023-01-16T00:04:34;97514.00;;;8.40
10058;BMP180;5068;51.286;7.518;2023-01-16T00:06:07;97504.00;;;8.40
10058;BMP180;5068;51.286;7.518;2023-01-16T00:07:41;97514.00;;;8.40
10058;BMP180;5068;51.286;7.518;2023-01-16T00:09:15;97504.00;;;8.40
10058;BMP180;5068;51.286;7.518;2023-01-16T00:10:48;97505.00;;;8.40
10058;BMP180;5068;51.286;7.518;2023-01-16T00:12:22;97489.00;;;8.40
10058;BMP180;5068;51.286;7.518;2023-01-16T00:13:55;97505.00;;;8.40
10058;BMP180;5068;51.286;7.518;2023-01-16T00:15:30;97497.00;;;8.40
10058;BMP180;5068;51.286;7.518;2023-01-16T00:17:05;97494.00;;;8.40
10058;BMP180;5068;51.286;7.518;2023-01-16T00:18:39;97492.00;;;8.40
10058;BMP180;5068;51.286;7.518;2023-01-16T00:20:13;97475.00;;;8.40
10058;BMP180;5068;51.286;7.518;2023-01-16T00:21:46;97483.00;;;8.40
10058;BMP180;5068;51.286;7.518;2023-01-16T00:23:20;97474.00;;;8.40
10058;BMP180;5068;51.286;7.518;2023-01-16T00:24:57;97494.00;;;8.40
10058;BMP180;5068;51.286;7.518;2023-01-16T00:26:31;97483.00;;;8.40
10058;BMP180;5068;51.286;7.518;2023-01-16T00:28:04;97479.00;;;8.40
10058;BMP180;5068;51.286;7.518;2023-01-16T00:29:38;97484.00;;;8.40
10058;BMP180;5068;51.286;7.518;2023-01-16T00:31:16;97485.00;;;8.40
10058;BMP180;5068;51.286;7.518;2023-01-16T00:32:51;97485.00;;;8.40
10058;BMP180;5068;51.286;7.518;2023-01-16T00:34:23;97472.00;;;8.50
10058;BMP180;5068;51.286;7.518;2023-01-16T00:35:57;97469.00;;;8.50
10058;BMP180;5068;51.286;7.518;2023-01-16T00:37:30;97474.00;;;8.40
10058;BMP180;5068;51.286;7.518;2023-01-16T00:39:03;97474.00;;;8.40
10058;BMP180;5068;51.286;7.518;2023-01-16T00:40:37;97456.00;;;8.40
10058;BMP180;5068;51.286;7.518;2023-01-16T00:42:10;97469.00;;;8.40
10058;BMP180;5068;51.286;7.518;2023-01-16T00:43:43;97454.00;;;8.40
10058;BMP180;5068;51.286;7.518;2023-01-16T00:45:17;97446.00;;;8.40
10058;BMP180;5068;51.286;7.518;2023-01-16T00:46:51;97440.00;;;8.40
10058;BMP180;5068;51.286;7.518;2023-01-16T00:48:25;97438.00;;;8.40
10058;BMP180;5068;51.286;7.518;2023-01-16T00:49:59;97437.00;;;8.40
10058;BMP180;5068;51.286;7.518;2023-01-16T00:51:32;97430.00;;;8.40
10058;BMP180;5068;51.286;7.518;2023-01-16T00:53:05;97427.00;;;8.40
10058;BMP180;5068;51.286;7.518;2023-01-16T00:54:39;97423.00;;;8.40
10058;BMP180;5068;51.286;7.518;2023-01-16T00:56:12;97431.00;;;8.40
10058;BMP180;5068;51.286;7.518;2023-01-16T00:57:46;97424.00;;;8.40
10058;BMP180;5068;51.286;7.518;2023-01-16T00:59:19;97412.00;;;8.40
10058;BMP180;5068;51.286;7.518;2023-01-16T01:00:52;97427.00;;;8.40
10058;BMP180;5068;51.286;7.518;2023-01-16T01:02:26;97412.00;;;8.40
10058;BMP180;5068;51.286;7.518;2023-01-16T01:04:00;97414.00;;;8.40
10058;BMP180;5068;51.286;7.518;2023-01-16T01:05:36;97401.00;;;8.40
10058;BMP180;5068;51.286;7.518;2023-01-16T01:07:10;97399.00;;;8.40
10058;BMP180;5068;51.286;7.518;2023-01-16T01:08:43;97393.00;;;8.40
10058;BMP180;5068;51.286;7.518;2023-01-16T01:10:17;97399.00;;;8.40
10058;BMP180;5068;51.286;7.518;2023-01-16T01:11:51;97418.00;;;8.40
10058;BMP180;5068;51.286;7.518;2023-01-16T01:13:24;97403.00;;;8.30
10058;BMP180;5068;51.286;7.518;2023-01-16T01:14:58;97412.00;;;8.30
10058;BMP180;5068;51.286;7.518;2023-01-16T01:16:33;97406.00;;;8.30
10058;BMP180;5068;51.286;7.518;2023-01-16T01:18:07;97395.00;;;8.30
10058;BMP180;5068;51.286;7.518;2023-01-16T01:19:41;97393.00;;;8.30
10058;BMP180;5068;51.286;7.518;2023-01-16T01:21:14;97391.00;;;8.30
10058;BMP180;5068;51.286;7.518;2023-01-16T01:22:47;97390.00;;;8.30
10058;BMP180;5068;51.286;7.518;2023-01-16T01:24:21;97403.00;;;8.30
10058;BMP180;5068;51.286;7.518;2023-01-16T01:25:55;97384.00;;;8.30
10058;BMP180;5068;51.286;7.518;2023-01-16T01:27:28;97378.00;;;8.30
10058;BMP180;5068;51.286;7.518;2023-01-16T01:29:02;97380.00;;;8.30
10058;BMP180;5068;51.286;7.518;2023-01-16T01:30:34;97387.00;;;8.30
10058;BMP180;5068;51.286;7.518;2023-01-16T01:32:07;97385.00;;;8.30
10058;BMP180;5068;51.286;7.518;2023-01-16T01:33:41;97373.00;;;8.40
10058;BMP180;5068;51.286;7.518;2023-01-16T01:35:16;97378.00;;;8.40
10058;BMP180;5068;51.286;7.518;2023-01-16T01:36:51;97387.00;;;8.40
10058;BMP180;5068;51.286;7.518;2023-01-16T01:38:24;97372.00;;;8.40
10058;BMP180;5068;51.286;7.518;2023-01-16T01:39:57;97374.00;;;8.40
10058;BMP180;5068;51.286;7.518;2023-01-16T01:41:31;97362.00;;;8.40
10058;BMP180;5068;51.286;7.518;2023-01-16T01:43:10;97361.00;;;8.40
10058;BMP180;5068;51.286;7.518;2023-01-16T01:44:52;97361.00;;;8.40
10058;BMP180;5068;51.286;7.518;2023-01-16T01:46:30;97364.00;;;8.40
10058;BMP180;5068;51.286;7.518;2023-01-16T01:48:21;97354.00;;;8.40
10058;BMP180;5068;51.286;7.518;2023-01-16T01:49:59;97347.00;;;8.40
10058;BMP180;5068;51.286;7.518;2023-01-16T01:51:40;97353.00;;;8.40
10058;BMP180;5068;51.286;7.518;2023-01-16T01:53:18;97354.00;;;8.30
10058;BMP180;5068;51.286;7.518;2023-01-16T01:54:57;97346.00;;;8.30
10058;BMP180;5068;51.286;7.518;2023-01-16T01:56:39;97348.00;;;8.30
10058;BMP180;5068;51.286;7.518;2023-01-16T01:58:20;97341.00;;;8.30
10058;BMP180;5068;51.286;7.518;2023-01-16T02:00:03;97345.00;;;8.30
10058;BMP180;5068;51.286;7.518;2023-01-16T02:01:45;97340.00;;;8.30
10058;BMP180;5068;51.286;7.518;2023-01-16T02:03:24;97337.00;;;8.20
10058;BMP180;5068;51.286;7.518;2023-01-16T02:05:04;97329.00;;;8.20
10058;BMP180;5068;51.286;7.518;2023-01-16T02:06:44;97333.00;;;8.20
10058;BMP180;5068;51.286;7.518;2023-01-16T02:08:21;97312.00;;;8.10
10058;BMP180;5068;51.286;7.518;2023-01-16T02:10:04;97316.00;;;8.10
10058;BMP180;5068;51.286;7.518;2023-01-16T02:11:45;97308.00;;;8.10
10058;BMP180;5068;51.286;7.518;2023-01-16T02:13:20;97310.00;;;8.10
10058;BMP180;5068;51.286;7.518;2023-01-16T02:14:56;97307.00;;;8.10
10058;BMP180;5068;51.286;7.518;2023-01-16T02:16:30;97294.00;;;8.10
10058;BMP180;5068;51.286;7.518;2023-01-16T02:18:21;97296.00;;;8.10
10058;BMP180;5068;51.286;7.518;2023-01-16T02:20:20;97283.00;;;8.10
10058;BMP180;5068;51.286;7.518;2023-01-16T02:22:34;97283.00;;;8.00
10058;BMP180;5068;51.286;7.518;2023-01-16T02:27:27;97278.00;;;8.00
10058;BMP180;5068;51.286;7.518;2023-01-16T02:29:40;97262.00;;;8.00
10058;BMP180;5068;51.286;7.518;2023-01-16T02:31:31;97266.00;;;7.90
10058;BMP180;5068;51.286;7.518;2023-01-16T02:33:15;97269.00;;;7.90
10058;BMP180;5068;51.286;7.518;2023-01-16T02:35:19;97269.00;;;7.90
10058;BMP180;5068;51.286;7.518;2023-01-16T02:37:05;97254.00;;;7.90
10058;BMP180;5068;51.286;7.518;2023-01-16T02:38:52;97245.00;;;7.90
10058;BMP180;5068;51.286;7.518;2023-01-16T02:40:39;97247.00;;;7.80
10058;BMP180;5068;51.286;7.518;2023-01-16T02:42:25;97255.00;;;7.80
10058;BMP180;5068;51.286;7.518;2023-01-16T02:44:10;97241.00;;;7.80
10058;BMP180;5068;51.286;7.518;2023-01-16T02:45:55;97248.00;;;7.80
10058;BMP180;5068;51.286;7.518;2023-01-16T02:47:45;97241.00;;;7.80
10058;BMP180;5068;51.286;7.518;2023-01-16T02:49:28;97238.00;;;7.80
10058;BMP180;5068;51.286;7.518;2023-01-16T02:51:07;97229.00;;;7.90
10058;BMP180;5068;51.286;7.518;2023-01-16T02:52:52;97224.00;;;7.90
10058;BMP180;5068;51.286;7.518;2023-01-16T02:54:33;97226.00;;;7.90
10058;BMP180;5068;51.286;7.518;2023-01-16T02:56:15;97216.00;;;7.90
10058;BMP180;5068;51.286;7.518;2023-01-16T02:57:57;97208.00;;;7.90
10058;BMP180;5068;51.286;7.518;2023-01-16T02:59:31;97208.00;;;7.90
10058;BMP180;5068;51.286;7.518;2023-01-16T03:01:07;97203.00;;;7.90
10058;BMP180;5068;51.286;7.518;2023-01-16T03:02:43;97208.00;;;7.90
10058;BMP180;5068;51.286;7.518;2023-01-16T03:04:40;97196.00;;;7.90
10058;BMP180;5068;51.286;7.518;2023-01-16T03:06:34;97204.00;;;7.90
10058;BMP180;5068;51.286;7.518;2023-01-16T03:08:34;97193.00;;;7.80
10058;BMP180;5068;51.286;7.518;2023-01-16T03:10:42;97185.00;;;7.90
10058;BMP180;5068;51.286;7.518;2023-01-16T03:12:35;97194.00;;;7.80
10058;BMP180;5068;51.286;7.518;2023-01-16T03:14:33;97193.00;;;7.80
10058;BMP180;5068;51.286;7.518;2023-01-16T03:16:22;97181.00;;;7.80
10058;BMP180;5068;51.286;7.518;2023-01-16T03:18:10;97189.00;;;7.80
10058;BMP180;5068;51.286;7.518;2023-01-16T03:20:04;97181.00;;;7.80
10058;BMP180;5068;51.286;7.518;2023-01-16T03:21:54;97174.00;;;7.80
10058;BMP180;5068;51.286;7.518;2023-01-16T03:23:46;97184.00;;;7.80
10058;BMP180;5068;51.286;7.518;2023-01-16T03:25:32;97170.00;;;7.80
10058;BMP180;5068;51.286;7.518;2023-01-16T03:27:14;97177.00;;;7.80
10058;BMP180;5068;51.286;7.518;2023-01-16T03:29:10;97172.00;;;7.80
10058;BMP180;5068;51.286;7.518;2023-01-16T03:30:53;97163.00;;;7.80
10058;BMP180;5068;51.286;7.518;2023-01-16T03:32:34;97160.00;;;7.80
10058;BMP180;5068;51.286;7.518;2023-01-16T03:34:17;97153.00;;;7.90
10058;BMP180;5068;51.286;7.518;2023-01-16T03:36:04;97149.00;;;7.90
10058;BMP180;5068;51.286;7.518;2023-01-16T03:37:46;97154.00;;;7.90
10058;BMP180;5068;51.286;7.518;2023-01-16T03:39:25;97143.00;;;7.90
10058;BMP180;5068;51.286;7.518;2023-01-16T03:41:03;97142.00;;;7.90
10058;BMP180;5068;51.286;7.518;2023-01-16T03:42:43;97142.00;;;7.90
10058;BMP180;5068;51.286;7.518;2023-01-16T03:44:24;97136.00;;;7.90
10058;BMP180;5068;51.286;7.518;2023-01-16T03:46:04;97137.00;;;7.90
10058;BMP180;5068;51.286;7.518;2023-01-16T03:47:46;97130.00;;;7.90
10058;BMP180;5068;51.286;7.518;2023-01-16T03:49:28;97127.00;;;7.90
10058;BMP180;5068;51.286;7.518;2023-01-16T03:51:06;97121.00;;;7.90
10058;BMP180;5068;51.286;7.518;2023-01-16T03:52:45;97115.00;;;7.90
10058;BMP180;5068;51.286;7.518;2023-01-16T03:54:30;97114.00;;;7.90
10058;BMP180;5068;51.286;7.518;2023-01-16T03:56:13;97116.00;;;7.90
10058;BMP180;5068;51.286;7.518;2023-01-16T03:58:00;97106.00;;;7.90
10058;BMP180;5068;51.286;7.518;2023-01-16T03:59:35;97106.00;;;7.90
10058;BMP180;5068;51.286;7.518;2023-01-16T04:01:21;97106.00;;;7.90
10058;BMP180;5068;51.286;7.518;2023-01-16T04:03:05;97091.00;;;7.90
10058;BMP180;5068;51.286;7.518;2023-01-16T04:04:48;97088.00;;;7.90
10058;BMP180;5068;51.286;7.518;2023-01-16T04:06:31;97086.00;;;7.90
10058;BMP180;5068;51.286;7.518;2023-01-16T04:08:11;97096.00;;;7.90
10058;BMP180;5068;51.286;7.518;2023-01-16T04:09:53;97081.00;;;7.90
10058;BMP180;5068;51.286;7.518;2023-01-16T04:11:28;97079.00;;;7.80
10058;BMP180;5068;51.286;7.518;2023-01-16T04:13:07;97069.00;;;7.80
10058;BMP180;5068;51.286;7.518;2023-01-16T04:14:42;97067.00;;;7.80
10058;BMP180;5068;51.286;7.518;2023-01-16T04:16:20;97066.00;;;7.80
10058;BMP180;5068;51.286;7.518;2023-01-16T04:17:58;97052.00;;;7.80
10058;BMP180;5068;51.286;7.518;2023-01-16T04:19:33;97068.00;;;7.80
10058;BMP180;5068;51.286;7.518;2023-01-16T04:21:09;97053.00;;;7.80
10058;BMP180;5068;51.286;7.518;2023-01-16T04:22:47;97054.00;;;7.80
10058;BMP180;5068;51.286;7.518;2023-01-16T04:24:21;97058.00;;;7.80
10058;BMP180;5068;51.286;7.518;2023-01-16T04:25:54;97047.00;;;7.80
10058;BMP180;5068;51.286;7.518;2023-01-16T04:27:28;97034.00;;;7.80
10058;BMP180;5068;51.286;7.518;2023-01-16T04:29:01;97028.00;;;7.80
10058;BMP180;5068;51.286;7.518;2023-01-16T04:30:36;97034.00;;;7.70
10058;BMP180;5068;51.286;7.518;2023-01-16T04:32:10;97032.00;;;7.70
10058;BMP180;5068;51.286;7.518;2023-01-16T04:33:43;97026.00;;;7.80
10058;BMP180;5068;51.286;7.518;2023-01-16T04:35:17;97017.00;;;7.70
10058;BMP180;5068;51.286;7.518;2023-01-16T04:36:52;97017.00;;;7.70
10058;BMP180;5068;51.286;7.518;2023-01-16T04:38:25;97014.00;;;7.70
10058;BMP180;5068;51.286;7.518;2023-01-16T04:39:59;96991.00;;;7.70
10058;BMP180;5068;51.286;7.518;2023-01-16T04:41:32;97004.00;;;7.70
10058;BMP180;5068;51.286;7.518;2023-01-16T04:43:12;96991.00;;;7.70
10058;BMP180;5068;51.286;7.518;2023-01-16T04:44:45;96996.00;;;7.70
10058;BMP180;5068;51.286;7.518;2023-01-16T04:46:18;96987.00;;;7.70
10058;BMP180;5068;51.286;7.518;2023-01-16T04:47:52;96971.00;;;7.70
10058;BMP180;5068;51.286;7.518;2023-01-16T04:49:25;96966.00;;;7.70
10058;BMP180;5068;51.286;7.518;2023-01-16T04:50:59;96966.00;;;7.70
10058;BMP180;5068;51.286;7.518;2023-01-16T04:52:35;96957.00;;;7.70
10058;BMP180;5068;51.286;7.518;2023-01-16T04:54:15;96948.00;;;7.70
10058;BMP180;5068;51.286;7.518;2023-01-16T04:55:48;96948.00;;;7.70
10058;BMP180;5068;51.286;7.518;2023-01-16T04:57:22;96945.00;;;7.70
10058;BMP180;5068;51.286;7.518;2023-01-16T04:58:55;96934.00;;;7.70
10058;BMP180;5068;51.286;7.518;2023-01-16T05:00:28;96919.00;;;7.70
10058;BMP180;5068;51.286;7.518;2023-01-16T05:02:01;96913.00;;;7.70
10058;BMP180;5068;51.286;7.518;2023-01-16T05:03:34;96910.00;;;7.70
10058;BMP180;5068;51.286;7.518;2023-01-16T05:05:07;96907.00;;;7.70
10058;BMP180;5068;51.286;7.518;2023-01-16T05:06:42;96902.00;;;7.80
10058;BMP180;5068;51.286;7.518;2023-01-16T05:08:16;96898.00;;;7.70
10058;BMP180;5068;51.286;7.518;2023-01-16T05:09:48;96889.00;;;7.80
10058;BMP180;5068;51.286;7.518;2023-01-16T05:11:22;96893.00;;;7.80
10058;BMP180;5068;51.286;7.518;2023-01-16T05:12:55;96893.00;;;7.80
10058;BMP180;5068;51.286;7.518;2023-01-16T05:14:28;96888.00;;;7.80
10058;BMP180;5068;51.286;7.518;2023-01-16T05:16:02;96875.00;;;7.80
10058;BMP180;5068;51.286;7.518;2023-01-16T05:17:36;96876.00;;;7.70
10058;BMP180;5068;51.286;7.518;2023-01-16T05:19:10;96868.00;;;7.70
10058;BMP180;5068;51.286;7.518;2023-01-16T05:20:43;96866.00;;;7.70
10058;BMP180;5068;51.286;7.518;2023-01-16T05:22:16;96860.00;;;7.70
10058;BMP180;5068;51.286;7.518;2023-01-16T05:23:51;96857.00;;;7.70
10058;BMP180;5068;51.286;7.518;2023-01-16T05:25:23;96849.00;;;7.70
10058;BMP180;5068;51.286;7.518;2023-01-16T05:26:56;96852.00;;;7.70
10058;BMP180;5068;51.286;7.518;2023-01-16T05:28:31;96841.00;;;7.70
10058;BMP180;5068;51.286;7.518;2023-01-16T05:30:06;96831.00;;;7.70
10058;BMP180;5068;51.286;7.518;2023-01-16T05:31:39;96837.00;;;7.70
10058;BMP180;5068;51.286;7.518;2023-01-16T05:33:13;96832.00;;;7.70
10058;BMP180;5068;51.286;7.518;2023-01-16T05:34:46;96824.00;;;7.70
10058;BMP180;5068;51.286;7.518;2023-01-16T05:36:19;96814.00;;;7.70
10058;BMP180;5068;51.286;7.518;2023-01-16T05:37:53;96817.00;;;7.70
10058;BMP180;5068;51.286;7.518;2023-01-16T05:39:28;96812.00;;;7.70
10058;BMP180;5068;51.286;7.518;2023-01-16T05:41:01;96791.00;;;7.70
10058;BMP180;5068;51.286;7.518;2023-01-16T05:42:34;96802.00;;;7.70
10058;BMP180;5068;51.286;7.518;2023-01-16T05:44:07;96804.00;;;7.70
10058;BMP180;5068;51.286;7.518;2023-01-16T05:45:41;96804.00;;;7.70
10058;BMP180;5068;51.286;7.518;2023-01-16T05:47:14;96797.00;;;7.70
10058;BMP180;5068;51.286;7.518;2023-01-16T05:48:47;96791.00;;;7.70
10058;BMP180;5068;51.286;7.518;2023-01-16T05:50:21;96794.00;;;7.70
10058;BMP180;5068;51.286;7.518;2023-01-16T05:51:54;96787.00;;;7.70
10058;BMP180;5068;51.286;7.518;2023-01-16T05:53:27;96787.00;;;7.70
10058;BMP180;5068;51.286;7.518;2023-01-16T05:55:05;96780.00;;;7.70
10058;BMP180;5068;51.286;7.518;2023-01-16T05:56:38;96784.00;;;7.70
10058;BMP180;5068;51.286;7.518;2023-01-16T05:58:14;96773.00;;;7.80
10058;BMP180;5068;51.286;7.518;2023-01-16T05:59:48;96773.00;;;7.80
10058;BMP180;5068;51.286;7.518;2023-01-16T06:01:21;96764.00;;;7.80
10058;BMP180;5068;51.286;7.518;2023-01-16T06:02:55;96768.00;;;7.80
10058;BMP180;5068;51.286;7.518;2023-01-16T06:04:28;96762.00;;;7.80
10058;BMP180;5068;51.286;7.518;2023-01-16T06:06:01;96755.00;;;7.80
10058;BMP180;5068;51.286;7.518;2023-01-16T06:07:35;96761.00;;;7.80
10058;BMP180;5068;51.286;7.518;2023-01-16T06:09:09;96751.00;;;7.80
10058;BMP180;5068;51.286;7.518;2023-01-16T06:10:44;96747.00;;;7.80
10058;BMP180;5068;51.286;7.518;2023-01-16T06:12:19;96747.00;;;7.80
10058;BMP180;5068;51.286;7.518;2023-01-16T06:13:52;96741.00;;;7.90
10058;BMP180;5068;51.286;7.518;2023-01-16T06:15:25;96739.00;;;7.90
10058;BMP180;5068;51.286;7.518;2023-01-16T06:16:58;96730.00;;;7.90
10058;BMP180;5068;51.286;7.518;2023-01-16T06:18:32;96734.00;;;7.90
10058;BMP180;5068;51.286;7.518;2023-01-16T06:20:05;96728.00;;;7.90
10058;BMP180;5068;51.286;7.518;2023-01-16T06:21:39;96717.00;;;7.90
10058;BMP180;5068;51.286;7.518;2023-01-16T06:23:12;96715.00;;;7.90
10058;BMP180;5068;51.286;7.518;2023-01-16T06:24:46;96718.00;;;7.90
10058;BMP180;5068;51.286;7.518;2023-01-16T06:26:20;96707.00;;;7.90
10058;BMP180;5068;51.286;7.518;2023-01-16T06:27:54;96707.00;;;7.90
10058;BMP180;5068;51.286;7.518;2023-01-16T06:29:27;96695.00;;;7.90
10058;BMP180;5068;51.286;7.518;2023-01-16T06:31:00;96698.00;;;7.90
10058;BMP180;5068;51.286;7.518;2023-01-16T06:32:33;96693.00;;;7.90
10058;BMP180;5068;51.286;7.518;2023-01-16T06:34:07;96686.00;;;7.90
10058;BMP180;5068;51.286;7.518;2023-01-16T06:35:40;96680.00;;;7.90
10058;BMP180;5068;51.286;7.518;2023-01-16T06:37:15;96691.00;;;7.90
10058;BMP180;5068;51.286;7.518;2023-01-16T06:38:49;96683.00;;;8.00
10058;BMP180;5068;51.286;7.518;2023-01-16T06:40:22;96695.00;;;8.00
10058;BMP180;5068;51.286;7.518;2023-01-16T06:41:56;96693.00;;;8.00
10058;BMP180;5068;51.286;7.518;2023-01-16T06:43:30;96685.00;;;8.00
10058;BMP180;5068;51.286;7.518;2023-01-16T06:45:04;96683.00;;;8.00
10058;BMP180;5068;51.286;7.518;2023-01-16T06:46:37;96669.00;;;8.00
10058;BMP180;5068;51.286;7.518;2023-01-16T06:48:14;96673.00;;;8.00
10058;BMP180;5068;51.286;7.518;2023-01-16T06:49:47;96677.00;;;8.00
10058;BMP180;5068;51.286;7.518;2023-01-16T06:51:20;96671.00;;;8.00
10058;BMP180;5068;51.286;7.518;2023-01-16T06:52:54;96666.00;;;8.00
10058;BMP180;5068;51.286;7.518;2023-01-16T06:54:27;96670.00;;;8.00
10058;BMP180;5068;51.286;7.518;2023-01-16T06:56:00;96671.00;;;8.00
10058;BMP180;5068;51.286;7.518;2023-01-16T06:57:36;96670.00;;;8.00
10058;BMP180;5068;51.286;7.518;2023-01-16T06:59:09;96657.00;;;8.00
10058;BMP180;5068;51.286;7.518;2023-01-16T07:00:43;96654.00;;;8.00
10058;BMP180;5068;51.286;7.518;2023-01-16T07:02:16;96642.00;;;8.00
10058;BMP180;5068;51.286;7.518;2023-01-16T07:03:50;96640.00;;;8.10
10058;BMP180;5068;51.286;7.518;2023-01-16T07:05:26;96626.00;;;8.00
10058;BMP180;5068;51.286;7.518;2023-01-16T07:07:00;96633.00;;;8.10
10058;BMP180;5068;51.286;7.518;2023-01-16T07:08:34;96624.00;;;8.10
10058;BMP180;5068;51.286;7.518;2023-01-16T07:10:09;96607.00;;;8.10
10058;BMP180;5068;51.286;7.518;2023-01-16T07:11:42;96612.00;;;8.10
10058;BMP180;5068;51.286;7.518;2023-01-16T07:13:17;96587.00;;;8.10
10058;BMP180;5068;51.286;7.518;2023-01-16T07:14:54;96580.00;;;8.10
10058;BMP180;5068;51.286;7.518;2023-01-16T07:16:45;96573.00;;;8.10
10058;BMP180;5068;51.286;7.518;2023-01-16T07:18:36;96564.00;;;8.10
10058;BMP180;5068;51.286;7.518;2023-01-16T07:20:27;96571.00;;;8.10
10058;BMP180;5068;51.286;7.518;2023-01-16T07:22:19;96568.00;;;8.10
10058;BMP180;5068;51.286;7.518;2023-01-16T07:24:14;96560.00;;;8.10
10058;BMP180;5068;51.286;7.518;2023-01-16T07:25:48;96553.00;;;8.10
10058;BMP180;5068;51.286;7.518;2023-01-16T07:27:24;96546.00;;;8.10
10058;BMP180;5068;51.286;7.518;2023-01-16T07:28:59;96549.00;;;8.10
10058;BMP180;5068;51.286;7.518;2023-01-16T07:30:34;96546.00;;;8.10
10058;BMP180;5068;51.286;7.518;2023-01-16T07:32:07;96542.00;;;8.20
10058;BMP180;5068;51.286;7.518;2023-01-16T07:33:41;96545.00;;;8.20
10058;BMP180;5068;51.286;7.518;2023-01-16T07:35:14;96532.00;;;8.20
10058;BMP180;5068;51.286;7.518;2023-01-16T07:36:48;96537.00;;;8.20
10058;BMP180;5068;51.286;7.518;2023-01-16T07:38:22;96520.00;;;8.20
10058;BMP180;5068;51.286;7.518;2023-01-16T07:39:55;96512.00;;;8.20
10058;BMP180;5068;51.286;7.518;2023-01-16T07:41:29;96512.00;;;8.20
10058;BMP180;5068;51.286;7.518;2023-01-16T07:43:04;96501.00;;;8.20
10058;BMP180;5068;51.286;7.518;2023-01-16T07:44:38;96503.00;;;8.20
10058;BMP180;5068;51.286;7.518;2023-01-16T07:46:12;96497.00;;;8.20
10058;BMP180;5068;51.286;7.518;2023-01-16T07:47:45;96489.00;;;8.20
10058;BMP180;5068;51.286;7.518;2023-01-16T07:49:18;96497.00;;;8.20
10058;BMP180;5068;51.286;7.518;2023-01-16T07:50:52;96486.00;;;8.20
10058;BMP180;5068;51.286;7.518;2023-01-16T07:52:26;96489.00;;;8.20
10058;BMP180;5068;51.286;7.518;2023-01-16T07:53:59;96480.00;;;8.20
10058;BMP180;5068;51.286;7.518;2023-01-16T07:55:32;96472.00;;;8.20
10058;BMP180;5068;51.286;7.518;2023-01-16T07:57:06;96474.00;;;8.20
10058;BMP180;5068;51.286;7.518;2023-01-16T07:58:39;96472.00;;;8.20
10058;BMP180;5068;51.286;7.518;2023-01-16T08:00:17;96454.00;;;8.20
10058;BMP180;5068;51.286;7.518;2023-01-16T08:01:51;96459.00;;;8.20
10058;BMP180;5068;51.286;7.518;2023-01-16T08:03:25;96451.00;;;8.20
10058;BMP180;5068;51.286;7.518;2023-01-16T08:04:59;96441.00;;;8.30
10058;BMP180;5068;51.286;7.518;2023-01-16T08:06:33;96439.00;;;8.30
10058;BMP180;5068;51.286;7.518;2023-01-16T08:08:07;96432.00;;;8.30
10058;BMP180;5068;51.286;7.518;2023-01-16T08:09:40;96427.00;;;8.30
10058;BMP180;5068;51.286;7.518;2023-01-16T08:11:13;96430.00;;;8.30
10058;BMP180;5068;51.286;7.518;2023-01-16T08:13:04;96419.00;;;8.30
10058;BMP180;5068;51.286;7.518;2023-01-16T08:14:38;96411.00;;;8.30
10058;BMP180;5068;51.286;7.518;2023-01-16T08:16:13;96394.00;;;8.30
10058;BMP180;5068;51.286;7.518;2023-01-16T08:17:46;96406.00;;;8.30
10058;BMP180;5068;51.286;7.518;2023-01-16T08:19:20;96392.00;;;8.30
10058;BMP180;5068;51.286;7.518;2023-01-16T08:20:53;96387.00;;;8.30
10058;BMP180;5068;51.286;7.518;2023-01-16T08:22:26;96372.00;;;8.30
10058;BMP180;5068;51.286;7.518;2023-01-16T08:24:00;96386.00;;;8.30
10058;BMP180;5068;51.286;7.518;2023-01-16T08:25:33;96362.00;;;8.30
10058;BMP180;5068;51.286;7.518;2023-01-16T08:27:06;96377.00;;;8.40
10058;BMP180;5068;51.286;7.518;2023-01-16T08:28:42;96359.00;;;8.40
10058;BMP180;5068;51.286;7.518;2023-01-16T08:30:16;96362.00;;;8.40
10058;BMP180;5068;51.286;7.518;2023-01-16T08:31:52;96357.00;;;8.30
10058;BMP180;5068;51.286;7.518;2023-01-16T08:33:25;96347.00;;;8.30
10058;BMP180;5068;51.286;7.518;2023-01-16T08:34:58;96339.00;;;8.30
10058;BMP180;5068;51.286;7.518;2023-01-16T08:36:32;96342.00;;;8.40
10058;BMP180;5068;51.286;7.518;2023-01-16T08:38:06;96339.00;;;8.40
10058;BMP180;5068;51.286;7.518;2023-01-16T08:39:40;96328.00;;;8.40
10058;BMP180;5068;51.286;7.518;2023-01-16T08:41:13;96339.00;;;8.40
10058;BMP180;5068;51.286;7.518;2023-01-16T08:43:04;96330.00;;;8.40
10058;BMP180;5068;51.286;7.518;2023-01-16T08:44:55;96314.00;;;8.30
10058;BMP180;5068;51.286;7.518;2023-01-16T08:46:54;96312.00;;;8.30
10058;BMP180;5068;51.286;7.518;2023-01-16T08:48:47;96308.00;;;8.30
10058;BMP180;5068;51.286;7.518;2023-01-16T08:50:38;96292.00;;;8.30
10058;BMP180;5068;51.286;7.518;2023-01-16T08:52:30;96307.00;;;8.30
10058;BMP180;5068;51.286;7.518;2023-01-16T08:54:03;96297.00;;;8.30
10058;BMP180;5068;51.286;7.518;2023-01-16T08:55:36;96286.00;;;8.30
10058;BMP180;5068;51.286;7.518;2023-01-16T08:57:10;96299.00;;;8.30
10058;BMP180;5068;51.286;7.518;2023-01-16T08:58:44;96296.00;;;8.30
10058;BMP180;5068;51.286;7.518;2023-01-16T09:00:18;96291.00;;;8.30
10058;BMP180;5068;51.286;7.518;2023-01-16T09:01:53;96286.00;;;8.30
10058;BMP180;5068;51.286;7.518;2023-01-16T09:03:27;96294.00;;;8.30
10058;BMP180;5068;51.286;7.518;2023-01-16T09:05:00;96293.00;;;8.30
10058;BMP180;5068;51.286;7.518;2023-01-16T09:06:34;96279.00;;;8.30
10058;BMP180;5068;51.286;7.518;2023-01-16T09:08:09;96279.00;;;8.30
10058;BMP180;5068;51.286;7.518;2023-01-16T09:09:43;96288.00;;;8.30
10058;BMP180;5068;51.286;7.518;2023-01-16T09:11:16;96284.00;;;8.30
10058;BMP180;5068;51.286;7.518;2023-01-16T09:13:14;96279.00;;;8.30
10058;BMP180;5068;51.286;7.518;2023-01-16T09:15:06;96254.00;;;8.30
10058;BMP180;5068;51.286;7.518;2023-01-16T09:16:40;96254.00;;;8.30
10058;BMP180;5068;51.286;7.518;2023-01-16T09:18:15;96260.00;;;8.30
10058;BMP180;5068;51.286;7.518;2023-01-16T09:19:49;96260.00;;;8.30
10058;BMP180;5068;51.286;7.518;2023-01-16T09:21:22;96255.00;;;8.40
10058;BMP180;5068;51.286;7.518;2023-01-16T09:22:57;96256.00;;;8.40
10058;BMP180;5068;51.286;7.518;2023-01-16T09:24:31;96245.00;;;8.40
10058;BMP180;5068;51.286;7.518;2023-01-16T09:26:05;96254.00;;;8.40
10058;BMP180;5068;51.286;7.518;2023-01-16T09:27:38;96255.00;;;8.40
10058;BMP180;5068;51.286;7.518;2023-01-16T09:29:11;96245.00;;;8.30
10058;BMP180;5068;51.286;7.518;2023-01-16T09:30:45;96245.00;;;8.30
10058;BMP180;5068;51.286;7.518;2023-01-16T09:32:18;96246.00;;;8.30
10058;BMP180;5068;51.286;7.518;2023-01-16T09:33:53;96244.00;;;8.30
10058;BMP180;5068;51.286;7.518;2023-01-16T09:35:26;96240.00;;;8.30
10058;BMP180;5068;51.286;7.518;2023-01-16T09:37:00;96233.00;;;8.40
10058;BMP180;5068;51.286;7.518;2023-01-16T09:38:33;96219.00;;;8.40
10058;BMP180;5068;51.286;7.518;2023-01-16T09:40:10;96230.00;;;8.40